N62LC KRMG-KFSM
Flight info
| Callsign | N62LC |
|---|---|
| Flight time | 1h 43m |
| Altitude | 25000 |
| Route | EDASE GYPSI MEM AALII |
| Aircraft | CORS/M-SDGF/S |
Departure
| Time | 2026-05-04 02:37 |
|---|---|
| Airport | Richard B Russell Airport (KRMG) |
Arrival
| Time | 2026-05-04 04:20 |
|---|---|
| Airport | Fort Smith Regional Airport (KFSM) |
| Time | Latitude | Longitude | Altitude | Speed | Heading |
|---|---|---|---|---|---|
| 2026-05-04 02:26 | 34.35133 | -85.16169 | 640 ft | 0 kts | 182° |
| 2026-05-04 02:31 | 34.35126 | -85.16166 | 640 ft | 4 kts | 121° |
| 2026-05-04 02:31 | 34.35140 | -85.16120 | 639 ft | 8 kts | 76° |
| 2026-05-04 02:31 | 34.35143 | -85.16052 | 638 ft | 9 kts | 105° |
| 2026-05-04 02:31 | 34.35111 | -85.16013 | 638 ft | 6 kts | 227° |
| 2026-05-04 02:32 | 34.35065 | -85.16030 | 639 ft | 8 kts | 188° |
| 2026-05-04 02:32 | 34.35002 | -85.16041 | 639 ft | 10 kts | 187° |
| 2026-05-04 02:32 | 34.34929 | -85.16052 | 640 ft | 11 kts | 187° |
| 2026-05-04 02:32 | 34.34848 | -85.16062 | 640 ft | 13 kts | 185° |
| 2026-05-04 02:33 | 34.34752 | -85.16072 | 639 ft | 15 kts | 185° |
| 2026-05-04 02:33 | 34.34648 | -85.16082 | 639 ft | 16 kts | 188° |
| 2026-05-04 02:33 | 34.34584 | -85.16116 | 639 ft | 2 kts | 94° |
| 2026-05-04 02:34 | 34.34583 | -85.16109 | 639 ft | 5 kts | 93° |
| 2026-05-04 02:34 | 34.34552 | -85.16094 | 639 ft | 9 kts | 184° |
| 2026-05-04 02:34 | 34.34487 | -85.16099 | 639 ft | 9 kts | 183° |
| 2026-05-04 02:35 | 34.34422 | -85.16104 | 639 ft | 9 kts | 184° |
| 2026-05-04 02:35 | 34.34354 | -85.16090 | 639 ft | 11 kts | 146° |
| 2026-05-04 02:35 | 34.34289 | -85.16021 | 639 ft | 11 kts | 110° |
| 2026-05-04 02:35 | 34.34300 | -85.15926 | 638 ft | 13 kts | 26° |
| 2026-05-04 02:36 | 34.34541 | -85.15905 | 639 ft | 62 kts | 356° |
| 2026-05-04 02:36 | 34.35166 | -85.15811 | 696 ft | 112 kts | 7° |
| 2026-05-04 02:36 | 34.35999 | -85.15629 | 1054 ft | 126 kts | 11° |
| 2026-05-04 02:36 | 34.36968 | -85.15358 | 1197 ft | 155 kts | 12° |
| 2026-05-04 02:37 | 34.38079 | -85.15072 | 1600 ft | 169 kts | 7° |
| 2026-05-04 02:37 | 34.39256 | -85.15368 | 1645 ft | 190 kts | 327° |
| 2026-05-04 02:37 | 34.40086 | -85.16680 | 1758 ft | 202 kts | 288° |
| 2026-05-04 02:37 | 34.40076 | -85.18323 | 2351 ft | 191 kts | 257° |
| 2026-05-04 02:38 | 34.39737 | -85.19809 | 2956 ft | 178 kts | 253° |
| 2026-05-04 02:38 | 34.39370 | -85.21202 | 3518 ft | 172 kts | 252° |
| 2026-05-04 02:38 | 34.38993 | -85.22581 | 3923 ft | 174 kts | 252° |
| 2026-05-04 02:38 | 34.38611 | -85.23977 | 4293 ft | 177 kts | 252° |
| 2026-05-04 02:39 | 34.38264 | -85.25402 | 4754 ft | 175 kts | 259° |
| 2026-05-04 02:39 | 34.38145 | -85.26877 | 5233 ft | 175 kts | 269° |
| 2026-05-04 02:39 | 34.38166 | -85.28323 | 5785 ft | 175 kts | 274° |
| 2026-05-04 02:39 | 34.38278 | -85.29800 | 6372 ft | 174 kts | 277° |
| 2026-05-04 02:40 | 34.38432 | -85.31259 | 6967 ft | 173 kts | 278° |
| 2026-05-04 02:40 | 34.38599 | -85.32695 | 7562 ft | 170 kts | 280° |
| 2026-05-04 02:40 | 34.38850 | -85.34077 | 8094 ft | 173 kts | 287° |
| 2026-05-04 02:40 | 34.39198 | -85.35530 | 8523 ft | 182 kts | 288° |
| 2026-05-04 02:41 | 34.39531 | -85.37039 | 8994 ft | 189 kts | 286° |
| 2026-05-04 02:41 | 34.39839 | -85.38594 | 9467 ft | 194 kts | 285° |
| 2026-05-04 02:41 | 34.40166 | -85.40220 | 9950 ft | 199 kts | 287° |
| 2026-05-04 02:41 | 34.40517 | -85.41862 | 10389 ft | 203 kts | 287° |
| 2026-05-04 02:42 | 34.40875 | -85.43541 | 10828 ft | 207 kts | 287° |
| 2026-05-04 02:42 | 34.41223 | -85.45229 | 11266 ft | 211 kts | 286° |
| 2026-05-04 02:42 | 34.41583 | -85.46983 | 11703 ft | 215 kts | 287° |
| 2026-05-04 02:42 | 34.41952 | -85.48753 | 12164 ft | 217 kts | 287° |
| 2026-05-04 02:43 | 34.42327 | -85.50543 | 12620 ft | 220 kts | 287° |
| 2026-05-04 02:43 | 34.42704 | -85.52366 | 13083 ft | 223 kts | 287° |
| 2026-05-04 02:43 | 34.43080 | -85.54185 | 13559 ft | 225 kts | 287° |
| 2026-05-04 02:43 | 34.43461 | -85.56025 | 14009 ft | 227 kts | 287° |
| 2026-05-04 02:44 | 34.43848 | -85.57890 | 14437 ft | 229 kts | 287° |
| 2026-05-04 02:44 | 34.44237 | -85.59766 | 14860 ft | 231 kts | 287° |
| 2026-05-04 02:44 | 34.44629 | -85.61670 | 15304 ft | 233 kts | 287° |
| 2026-05-04 02:44 | 34.45020 | -85.63558 | 15739 ft | 234 kts | 287° |
| 2026-05-04 02:45 | 34.45417 | -85.65486 | 16190 ft | 235 kts | 286° |
| 2026-05-04 02:45 | 34.45813 | -85.67406 | 16640 ft | 236 kts | 286° |
| 2026-05-04 02:45 | 34.46214 | -85.69356 | 17106 ft | 238 kts | 286° |
| 2026-05-04 02:45 | 34.46611 | -85.71288 | 17570 ft | 238 kts | 286° |
| 2026-05-04 02:46 | 34.47010 | -85.73231 | 18033 ft | 237 kts | 286° |
| 2026-05-04 02:46 | 34.47406 | -85.75151 | 18506 ft | 235 kts | 286° |
| 2026-05-04 02:46 | 34.47797 | -85.77060 | 18919 ft | 233 kts | 286° |
| 2026-05-04 02:46 | 34.48189 | -85.78974 | 19348 ft | 229 kts | 286° |
| 2026-05-04 02:47 | 34.48568 | -85.80823 | 19771 ft | 229 kts | 286° |
| 2026-05-04 02:47 | 34.48955 | -85.82710 | 20217 ft | 228 kts | 286° |
| 2026-05-04 02:47 | 34.49334 | -85.84567 | 20655 ft | 226 kts | 286° |
| 2026-05-04 02:47 | 34.49709 | -85.86403 | 21101 ft | 224 kts | 286° |
| 2026-05-04 02:48 | 34.49962 | -85.87643 | 21416 ft | 222 kts | 286° |
| 2026-05-04 02:48 | 34.50450 | -85.90034 | 22025 ft | 218 kts | 286° |
| 2026-05-04 02:48 | 34.50803 | -85.91770 | 22481 ft | 213 kts | 286° |
| 2026-05-04 02:48 | 34.51162 | -85.93532 | 22973 ft | 214 kts | 286° |
| 2026-05-04 02:49 | 34.51517 | -85.95275 | 23459 ft | 216 kts | 285° |
| 2026-05-04 02:49 | 34.51759 | -85.96463 | 23776 ft | 219 kts | 286° |
| 2026-05-04 02:49 | 34.52129 | -85.98283 | 24197 ft | 222 kts | 286° |
| 2026-05-04 02:49 | 34.52496 | -86.00092 | 24619 ft | 225 kts | 286° |
| 2026-05-04 02:50 | 34.52881 | -86.01986 | 24879 ft | 235 kts | 286° |
| 2026-05-04 02:50 | 34.53288 | -86.03977 | 25010 ft | 249 kts | 286° |
| 2026-05-04 02:50 | 34.53708 | -86.06058 | 25077 ft | 257 kts | 286° |
| 2026-05-04 02:50 | 34.54129 | -86.08155 | 25148 ft | 254 kts | 286° |
| 2026-05-04 02:51 | 34.54547 | -86.10222 | 25167 ft | 255 kts | 286° |
| 2026-05-04 02:51 | 34.54974 | -86.12321 | 25174 ft | 257 kts | 286° |
| 2026-05-04 02:51 | 34.55403 | -86.14454 | 25175 ft | 259 kts | 286° |
| 2026-05-04 02:51 | 34.55828 | -86.16566 | 25151 ft | 262 kts | 286° |
| 2026-05-04 02:52 | 34.56267 | -86.18739 | 25131 ft | 265 kts | 286° |
| 2026-05-04 02:52 | 34.56703 | -86.20890 | 25122 ft | 267 kts | 286° |
| 2026-05-04 02:52 | 34.57175 | -86.23080 | 25115 ft | 269 kts | 287° |
| 2026-05-04 02:52 | 34.57563 | -86.25328 | 25120 ft | 272 kts | 281° |
| 2026-05-04 02:53 | 34.57834 | -86.27611 | 25103 ft | 274 kts | 281° |
| 2026-05-04 02:53 | 34.58182 | -86.29885 | 25110 ft | 275 kts | 284° |
| 2026-05-04 02:53 | 34.58548 | -86.32163 | 25108 ft | 277 kts | 283° |
| 2026-05-04 02:53 | 34.58872 | -86.34484 | 25107 ft | 278 kts | 282° |
| 2026-05-04 02:54 | 34.59206 | -86.36804 | 25119 ft | 279 kts | 283° |
| 2026-05-04 02:54 | 34.59559 | -86.39111 | 25111 ft | 280 kts | 283° |
| 2026-05-04 02:54 | 34.59902 | -86.41446 | 25110 ft | 282 kts | 282° |
| 2026-05-04 02:54 | 34.60238 | -86.43783 | 25111 ft | 282 kts | 282° |
| 2026-05-04 02:55 | 34.60937 | -86.48510 | 25113 ft | 284 kts | 282° |
| 2026-05-04 02:55 | 34.61275 | -86.50843 | 25102 ft | 284 kts | 283° |
| 2026-05-04 02:55 | 34.61627 | -86.53261 | 25121 ft | 285 kts | 282° |
| 2026-05-04 02:56 | 34.61972 | -86.55607 | 25116 ft | 285 kts | 282° |
| 2026-05-04 02:56 | 34.62316 | -86.57971 | 25118 ft | 286 kts | 282° |
| 2026-05-04 02:56 | 34.62659 | -86.60339 | 25113 ft | 287 kts | 282° |
| 2026-05-04 02:56 | 34.63008 | -86.62743 | 25119 ft | 287 kts | 282° |
| 2026-05-04 02:57 | 34.63354 | -86.65122 | 25120 ft | 287 kts | 282° |
| 2026-05-04 02:57 | 34.63704 | -86.67548 | 25115 ft | 288 kts | 282° |
| 2026-05-04 02:57 | 34.64048 | -86.69922 | 25116 ft | 288 kts | 282° |
| 2026-05-04 02:57 | 34.64394 | -86.72320 | 25117 ft | 288 kts | 282° |
| 2026-05-04 02:58 | 34.64741 | -86.74731 | 25115 ft | 288 kts | 282° |
| 2026-05-04 02:58 | 34.65084 | -86.77111 | 25117 ft | 288 kts | 282° |
| 2026-05-04 02:58 | 34.65431 | -86.79520 | 25137 ft | 289 kts | 282° |
| 2026-05-04 02:58 | 34.65776 | -86.81928 | 25136 ft | 289 kts | 282° |
| 2026-05-04 02:59 | 34.66098 | -86.84178 | 25135 ft | 289 kts | 282° |
| 2026-05-04 02:59 | 34.66446 | -86.86599 | 25139 ft | 289 kts | 282° |
| 2026-05-04 02:59 | 34.66788 | -86.88993 | 25134 ft | 289 kts | 282° |
| 2026-05-04 02:59 | 34.67130 | -86.91399 | 25135 ft | 289 kts | 282° |
| 2026-05-04 03:00 | 34.67475 | -86.93813 | 25135 ft | 289 kts | 282° |
| 2026-05-04 03:00 | 34.67816 | -86.96210 | 25140 ft | 289 kts | 282° |
| 2026-05-04 03:00 | 34.68156 | -86.98604 | 25133 ft | 289 kts | 282° |
| 2026-05-04 03:00 | 34.68498 | -87.01017 | 25134 ft | 289 kts | 282° |
| 2026-05-04 03:01 | 34.68842 | -87.03439 | 25139 ft | 289 kts | 282° |
| 2026-05-04 03:01 | 34.69179 | -87.05818 | 25135 ft | 289 kts | 282° |
| 2026-05-04 03:01 | 34.69519 | -87.08234 | 25131 ft | 289 kts | 282° |
| 2026-05-04 03:01 | 34.69860 | -87.10654 | 25133 ft | 289 kts | 282° |
| 2026-05-04 03:02 | 34.70202 | -87.13075 | 25126 ft | 289 kts | 282° |
| 2026-05-04 03:02 | 34.70538 | -87.15464 | 25126 ft | 289 kts | 282° |
| 2026-05-04 03:02 | 34.70878 | -87.17887 | 25120 ft | 289 kts | 282° |
| 2026-05-04 03:02 | 34.71214 | -87.20281 | 25122 ft | 289 kts | 282° |
| 2026-05-04 03:03 | 34.71552 | -87.22699 | 25114 ft | 289 kts | 282° |
| 2026-05-04 03:03 | 34.71885 | -87.25081 | 25111 ft | 289 kts | 282° |
| 2026-05-04 03:03 | 34.72225 | -87.27516 | 25108 ft | 289 kts | 282° |
| 2026-05-04 03:03 | 34.72556 | -87.29892 | 25108 ft | 289 kts | 282° |
| 2026-05-04 03:04 | 34.72896 | -87.32332 | 25110 ft | 289 kts | 282° |
| 2026-05-04 03:04 | 34.73226 | -87.34705 | 25108 ft | 289 kts | 282° |
| 2026-05-04 03:04 | 34.73563 | -87.37133 | 25105 ft | 289 kts | 282° |
| 2026-05-04 03:04 | 34.73898 | -87.39559 | 25109 ft | 289 kts | 282° |
| 2026-05-04 03:05 | 34.74227 | -87.41928 | 25111 ft | 288 kts | 282° |
| 2026-05-04 03:05 | 34.74562 | -87.44355 | 25114 ft | 288 kts | 282° |
| 2026-05-04 03:05 | 34.74891 | -87.46741 | 25119 ft | 288 kts | 282° |
| 2026-05-04 03:05 | 34.75223 | -87.49151 | 25120 ft | 288 kts | 282° |
| 2026-05-04 03:06 | 34.75556 | -87.51572 | 25118 ft | 288 kts | 282° |
| 2026-05-04 03:06 | 34.75884 | -87.53958 | 25118 ft | 288 kts | 282° |
| 2026-05-04 03:06 | 34.76214 | -87.56366 | 25118 ft | 288 kts | 282° |
| 2026-05-04 03:06 | 34.76542 | -87.58765 | 25117 ft | 288 kts | 282° |
| 2026-05-04 03:07 | 34.76871 | -87.61174 | 25120 ft | 288 kts | 282° |
| 2026-05-04 03:07 | 34.77202 | -87.63594 | 25117 ft | 288 kts | 282° |
| 2026-05-04 03:07 | 34.77527 | -87.65981 | 25118 ft | 288 kts | 282° |
| 2026-05-04 03:07 | 34.77854 | -87.68386 | 25118 ft | 288 kts | 282° |
| 2026-05-04 03:08 | 34.78181 | -87.70798 | 25120 ft | 288 kts | 282° |
| 2026-05-04 03:08 | 34.78505 | -87.73184 | 25118 ft | 288 kts | 282° |
| 2026-05-04 03:08 | 34.78833 | -87.75601 | 25114 ft | 288 kts | 282° |
| 2026-05-04 03:08 | 34.79158 | -87.78012 | 25113 ft | 288 kts | 282° |
| 2026-05-04 03:09 | 34.79481 | -87.80402 | 25109 ft | 288 kts | 282° |
| 2026-05-04 03:09 | 34.79804 | -87.82792 | 25106 ft | 288 kts | 282° |
| 2026-05-04 03:09 | 34.80128 | -87.85201 | 25107 ft | 288 kts | 282° |
| 2026-05-04 03:09 | 34.80455 | -87.87635 | 25102 ft | 288 kts | 282° |
| 2026-05-04 03:10 | 34.80778 | -87.90044 | 25103 ft | 288 kts | 282° |
| 2026-05-04 03:10 | 34.81100 | -87.92442 | 25101 ft | 288 kts | 282° |
| 2026-05-04 03:10 | 34.81423 | -87.94856 | 25095 ft | 288 kts | 282° |
| 2026-05-04 03:10 | 34.81747 | -87.97284 | 25093 ft | 288 kts | 282° |
| 2026-05-04 03:11 | 34.82065 | -87.99671 | 25098 ft | 288 kts | 282° |
| 2026-05-04 03:11 | 34.82388 | -88.02089 | 25092 ft | 288 kts | 282° |
| 2026-05-04 03:11 | 34.82707 | -88.04491 | 25094 ft | 288 kts | 282° |
| 2026-05-04 03:11 | 34.83023 | -88.06877 | 25092 ft | 288 kts | 282° |
| 2026-05-04 03:12 | 34.83344 | -88.09294 | 25091 ft | 288 kts | 282° |
| 2026-05-04 03:12 | 34.83667 | -88.11711 | 25091 ft | 288 kts | 282° |
| 2026-05-04 03:12 | 34.84036 | -88.14101 | 25091 ft | 287 kts | 283° |
| 2026-05-04 03:12 | 34.84322 | -88.16529 | 25090 ft | 289 kts | 278° |
| 2026-05-04 03:13 | 34.84506 | -88.18933 | 25089 ft | 288 kts | 279° |
| 2026-05-04 03:13 | 34.84777 | -88.21368 | 25090 ft | 288 kts | 281° |
| 2026-05-04 03:13 | 34.85041 | -88.23766 | 25094 ft | 288 kts | 279° |
| 2026-05-04 03:13 | 34.85267 | -88.26197 | 25094 ft | 288 kts | 279° |
| 2026-05-04 03:14 | 34.85512 | -88.28627 | 25094 ft | 288 kts | 280° |
| 2026-05-04 03:14 | 34.85770 | -88.31043 | 25096 ft | 288 kts | 280° |
| 2026-05-04 03:14 | 34.86012 | -88.33485 | 25097 ft | 288 kts | 279° |
| 2026-05-04 03:14 | 34.86249 | -88.35885 | 25097 ft | 288 kts | 279° |
| 2026-05-04 03:15 | 34.86497 | -88.38302 | 25097 ft | 288 kts | 280° |
| 2026-05-04 03:15 | 34.86743 | -88.40734 | 25096 ft | 288 kts | 279° |
| 2026-05-04 03:15 | 34.86981 | -88.43145 | 25097 ft | 288 kts | 279° |
| 2026-05-04 03:15 | 34.87224 | -88.45572 | 25099 ft | 288 kts | 279° |
| 2026-05-04 03:16 | 34.87468 | -88.47998 | 25099 ft | 288 kts | 279° |
| 2026-05-04 03:16 | 34.87708 | -88.50413 | 25099 ft | 288 kts | 279° |
| 2026-05-04 03:16 | 34.87947 | -88.52828 | 25099 ft | 288 kts | 279° |
| 2026-05-04 03:16 | 34.88190 | -88.55267 | 25101 ft | 288 kts | 279° |
| 2026-05-04 03:17 | 34.88429 | -88.57680 | 25099 ft | 288 kts | 279° |
| 2026-05-04 03:17 | 34.88669 | -88.60112 | 25099 ft | 288 kts | 279° |
| 2026-05-04 03:17 | 34.88910 | -88.62548 | 25099 ft | 288 kts | 279° |
| 2026-05-04 03:17 | 34.89145 | -88.64938 | 25102 ft | 288 kts | 279° |
| 2026-05-04 03:18 | 34.89385 | -88.67385 | 25099 ft | 288 kts | 279° |
| 2026-05-04 03:18 | 34.89620 | -88.69787 | 25098 ft | 288 kts | 279° |
| 2026-05-04 03:18 | 34.89861 | -88.72243 | 25100 ft | 288 kts | 279° |
| 2026-05-04 03:18 | 34.90095 | -88.74644 | 25100 ft | 288 kts | 279° |
| 2026-05-04 03:19 | 34.90332 | -88.77082 | 25101 ft | 289 kts | 279° |
| 2026-05-04 03:19 | 34.90570 | -88.79520 | 25098 ft | 289 kts | 279° |
| 2026-05-04 03:19 | 34.90805 | -88.81943 | 25097 ft | 289 kts | 279° |
| 2026-05-04 03:19 | 34.91041 | -88.84388 | 25092 ft | 289 kts | 279° |
| 2026-05-04 03:20 | 34.91273 | -88.86794 | 25091 ft | 289 kts | 279° |
| 2026-05-04 03:20 | 34.91509 | -88.89237 | 25091 ft | 289 kts | 279° |
| 2026-05-04 03:20 | 34.91741 | -88.91649 | 25092 ft | 289 kts | 279° |
| 2026-05-04 03:20 | 34.91975 | -88.94088 | 25090 ft | 289 kts | 279° |
| 2026-05-04 03:21 | 34.92208 | -88.96521 | 25088 ft | 289 kts | 279° |
| 2026-05-04 03:21 | 34.92439 | -88.98935 | 25086 ft | 289 kts | 279° |
| 2026-05-04 03:21 | 34.92673 | -89.01388 | 25089 ft | 289 kts | 279° |
| 2026-05-04 03:21 | 34.92903 | -89.03811 | 25085 ft | 289 kts | 279° |
| 2026-05-04 03:22 | 34.93134 | -89.06242 | 25085 ft | 289 kts | 279° |
| 2026-05-04 03:22 | 34.93366 | -89.08686 | 25085 ft | 289 kts | 279° |
| 2026-05-04 03:22 | 34.93597 | -89.11133 | 25083 ft | 289 kts | 279° |
| 2026-05-04 03:22 | 34.93824 | -89.13540 | 25083 ft | 289 kts | 279° |
| 2026-05-04 03:23 | 34.94055 | -89.16002 | 25078 ft | 289 kts | 279° |
| 2026-05-04 03:23 | 34.94282 | -89.18410 | 25078 ft | 289 kts | 279° |
| 2026-05-04 03:23 | 34.94512 | -89.20861 | 25076 ft | 289 kts | 279° |
| 2026-05-04 03:23 | 34.94738 | -89.23288 | 25076 ft | 289 kts | 279° |
| 2026-05-04 03:24 | 34.94967 | -89.25736 | 25075 ft | 289 kts | 279° |
| 2026-05-04 03:24 | 34.95194 | -89.28177 | 25074 ft | 289 kts | 279° |
| 2026-05-04 03:24 | 34.95419 | -89.30594 | 25074 ft | 289 kts | 279° |
| 2026-05-04 03:24 | 34.95647 | -89.33054 | 25074 ft | 289 kts | 279° |
| 2026-05-04 03:25 | 34.95870 | -89.35471 | 25074 ft | 289 kts | 279° |
| 2026-05-04 03:25 | 34.96096 | -89.37915 | 25074 ft | 289 kts | 279° |
| 2026-05-04 03:25 | 34.96322 | -89.40366 | 25073 ft | 290 kts | 279° |
| 2026-05-04 03:25 | 34.96547 | -89.42820 | 25074 ft | 289 kts | 279° |
| 2026-05-04 03:26 | 34.96769 | -89.45240 | 25072 ft | 289 kts | 279° |
| 2026-05-04 03:26 | 34.96992 | -89.47688 | 25070 ft | 290 kts | 278° |
| 2026-05-04 03:26 | 34.97141 | -89.49318 | 25073 ft | 290 kts | 278° |
| 2026-05-04 03:26 | 34.97436 | -89.52556 | 25070 ft | 290 kts | 279° |
| 2026-05-04 03:27 | 34.97584 | -89.54183 | 25070 ft | 290 kts | 279° |
| 2026-05-04 03:27 | 34.97807 | -89.56640 | 25070 ft | 289 kts | 278° |
| 2026-05-04 03:27 | 34.98027 | -89.59073 | 25069 ft | 289 kts | 278° |
| 2026-05-04 03:27 | 34.98249 | -89.61523 | 25074 ft | 289 kts | 278° |
| 2026-05-04 03:28 | 34.98470 | -89.63980 | 25072 ft | 289 kts | 278° |
| 2026-05-04 03:28 | 34.98687 | -89.66400 | 25071 ft | 289 kts | 278° |
| 2026-05-04 03:28 | 34.98906 | -89.68839 | 25072 ft | 289 kts | 278° |
| 2026-05-04 03:28 | 34.99123 | -89.71258 | 25070 ft | 289 kts | 278° |
| 2026-05-04 03:29 | 34.99340 | -89.73697 | 25072 ft | 289 kts | 278° |
| 2026-05-04 03:29 | 34.99557 | -89.76133 | 25071 ft | 289 kts | 278° |
| 2026-05-04 03:29 | 34.99776 | -89.78595 | 25073 ft | 289 kts | 278° |
| 2026-05-04 03:29 | 34.99990 | -89.81005 | 25073 ft | 289 kts | 278° |
| 2026-05-04 03:30 | 35.00206 | -89.83447 | 25071 ft | 289 kts | 278° |
| 2026-05-04 03:30 | 35.00418 | -89.85863 | 25073 ft | 289 kts | 278° |
| 2026-05-04 03:30 | 35.00635 | -89.88312 | 25073 ft | 289 kts | 278° |
| 2026-05-04 03:30 | 35.00850 | -89.90761 | 25071 ft | 289 kts | 278° |
| 2026-05-04 03:31 | 35.01061 | -89.93174 | 25072 ft | 289 kts | 278° |
| 2026-05-04 03:31 | 35.01288 | -89.95610 | 25073 ft | 289 kts | 279° |
| 2026-05-04 03:31 | 35.01528 | -89.98057 | 25072 ft | 289 kts | 278° |
| 2026-05-04 03:31 | 35.01609 | -90.00513 | 25072 ft | 290 kts | 273° |
| 2026-05-04 03:32 | 35.01625 | -90.02947 | 25072 ft | 289 kts | 275° |
| 2026-05-04 03:32 | 35.01739 | -90.05405 | 25073 ft | 289 kts | 276° |
| 2026-05-04 03:32 | 35.01827 | -90.07840 | 25071 ft | 289 kts | 274° |
| 2026-05-04 03:32 | 35.01879 | -90.10307 | 25073 ft | 289 kts | 274° |
| 2026-05-04 03:33 | 35.01962 | -90.12756 | 25068 ft | 289 kts | 275° |
| 2026-05-04 03:33 | 35.02050 | -90.15237 | 25051 ft | 289 kts | 275° |
| 2026-05-04 03:33 | 35.02115 | -90.17641 | 25051 ft | 289 kts | 275° |
| 2026-05-04 03:33 | 35.02188 | -90.20132 | 25052 ft | 289 kts | 275° |
| 2026-05-04 03:34 | 35.02268 | -90.22559 | 25052 ft | 289 kts | 275° |
| 2026-05-04 03:34 | 35.02341 | -90.25038 | 25051 ft | 289 kts | 275° |
| 2026-05-04 03:34 | 35.02411 | -90.27462 | 25051 ft | 289 kts | 275° |
| 2026-05-04 03:34 | 35.02485 | -90.29914 | 25053 ft | 289 kts | 275° |
| 2026-05-04 03:35 | 35.02559 | -90.32378 | 25051 ft | 289 kts | 275° |
| 2026-05-04 03:35 | 35.02629 | -90.34808 | 25052 ft | 289 kts | 275° |
| 2026-05-04 03:35 | 35.02700 | -90.37274 | 25051 ft | 289 kts | 275° |
| 2026-05-04 03:35 | 35.02772 | -90.39701 | 25050 ft | 289 kts | 275° |
| 2026-05-04 03:36 | 35.02842 | -90.42158 | 25050 ft | 289 kts | 275° |
| 2026-05-04 03:36 | 35.02911 | -90.44618 | 25047 ft | 289 kts | 275° |
| 2026-05-04 03:36 | 35.02981 | -90.47076 | 25045 ft | 289 kts | 275° |
| 2026-05-04 03:36 | 35.03050 | -90.49500 | 25046 ft | 289 kts | 275° |
| 2026-05-04 03:37 | 35.03118 | -90.51951 | 25046 ft | 289 kts | 275° |
| 2026-05-04 03:37 | 35.03185 | -90.54378 | 25044 ft | 289 kts | 275° |
| 2026-05-04 03:37 | 35.03253 | -90.56869 | 25043 ft | 289 kts | 274° |
| 2026-05-04 03:37 | 35.03319 | -90.59293 | 25042 ft | 288 kts | 274° |
| 2026-05-04 03:38 | 35.03385 | -90.61726 | 25040 ft | 288 kts | 274° |
| 2026-05-04 03:38 | 35.03452 | -90.64184 | 25044 ft | 291 kts | 274° |
| 2026-05-04 03:38 | 35.03519 | -90.66689 | 25045 ft | 295 kts | 274° |
| 2026-05-04 03:38 | 35.03584 | -90.69189 | 25047 ft | 298 kts | 274° |
| 2026-05-04 03:39 | 35.03651 | -90.71735 | 25048 ft | 301 kts | 274° |
| 2026-05-04 03:39 | 35.03718 | -90.74285 | 25045 ft | 303 kts | 274° |
| 2026-05-04 03:39 | 35.03785 | -90.76899 | 25045 ft | 305 kts | 274° |
| 2026-05-04 03:39 | 35.03851 | -90.79482 | 25045 ft | 307 kts | 274° |
| 2026-05-04 03:40 | 35.03916 | -90.82049 | 25044 ft | 308 kts | 274° |
| 2026-05-04 03:40 | 35.03983 | -90.84682 | 25043 ft | 309 kts | 274° |
| 2026-05-04 03:40 | 35.04048 | -90.87325 | 25044 ft | 310 kts | 274° |
| 2026-05-04 03:40 | 35.04114 | -90.89957 | 25044 ft | 311 kts | 274° |
| 2026-05-04 03:41 | 35.04178 | -90.92584 | 25044 ft | 312 kts | 274° |
| 2026-05-04 03:41 | 35.04243 | -90.95241 | 25043 ft | 312 kts | 274° |
| 2026-05-04 03:41 | 35.04307 | -90.97906 | 25043 ft | 312 kts | 274° |
| 2026-05-04 03:41 | 35.04370 | -91.00530 | 25042 ft | 313 kts | 274° |
| 2026-05-04 03:42 | 35.04433 | -91.03205 | 25042 ft | 313 kts | 274° |
| 2026-05-04 03:42 | 35.04495 | -91.05859 | 25044 ft | 313 kts | 274° |
| 2026-05-04 03:42 | 35.04557 | -91.08502 | 25043 ft | 314 kts | 274° |
| 2026-05-04 03:42 | 35.04619 | -91.11205 | 25043 ft | 314 kts | 274° |
| 2026-05-04 03:43 | 35.04679 | -91.13841 | 25044 ft | 314 kts | 274° |
| 2026-05-04 03:43 | 35.04739 | -91.16520 | 25046 ft | 314 kts | 274° |
| 2026-05-04 03:43 | 35.04799 | -91.19181 | 25046 ft | 314 kts | 274° |
| 2026-05-04 03:43 | 35.04858 | -91.21851 | 25047 ft | 314 kts | 274° |
| 2026-05-04 03:44 | 35.04916 | -91.24490 | 25047 ft | 314 kts | 274° |
| 2026-05-04 03:44 | 35.04974 | -91.27175 | 25049 ft | 314 kts | 274° |
| 2026-05-04 03:44 | 35.05031 | -91.29811 | 25048 ft | 314 kts | 274° |
| 2026-05-04 03:44 | 35.05088 | -91.32492 | 25048 ft | 314 kts | 274° |
| 2026-05-04 03:45 | 35.05143 | -91.35147 | 25051 ft | 314 kts | 274° |
| 2026-05-04 03:45 | 35.05199 | -91.37804 | 25049 ft | 314 kts | 274° |
| 2026-05-04 03:45 | 35.05254 | -91.40489 | 25048 ft | 314 kts | 274° |
| 2026-05-04 03:45 | 35.05308 | -91.43131 | 25049 ft | 314 kts | 274° |
| 2026-05-04 03:46 | 35.05362 | -91.45810 | 25047 ft | 314 kts | 274° |
| 2026-05-04 03:46 | 35.05415 | -91.48454 | 25044 ft | 314 kts | 274° |
| 2026-05-04 03:46 | 35.05467 | -91.51112 | 25044 ft | 314 kts | 274° |
| 2026-05-04 03:46 | 35.05520 | -91.53803 | 25044 ft | 314 kts | 274° |
| 2026-05-04 03:47 | 35.05570 | -91.56418 | 25043 ft | 314 kts | 274° |
| 2026-05-04 03:47 | 35.05621 | -91.59108 | 25042 ft | 314 kts | 274° |
| 2026-05-04 03:47 | 35.05671 | -91.61766 | 25043 ft | 314 kts | 274° |
| 2026-05-04 03:47 | 35.05722 | -91.64429 | 25044 ft | 314 kts | 274° |
| 2026-05-04 03:48 | 35.05770 | -91.67087 | 25041 ft | 314 kts | 274° |
| 2026-05-04 03:48 | 35.05818 | -91.69737 | 25040 ft | 314 kts | 274° |
| 2026-05-04 03:48 | 35.05867 | -91.72405 | 25039 ft | 314 kts | 274° |
| 2026-05-04 03:48 | 35.05914 | -91.75077 | 25041 ft | 313 kts | 274° |
| 2026-05-04 03:49 | 35.05960 | -91.77745 | 25039 ft | 313 kts | 274° |
| 2026-05-04 03:49 | 35.06006 | -91.80382 | 25040 ft | 313 kts | 274° |
| 2026-05-04 03:49 | 35.06052 | -91.83050 | 25041 ft | 313 kts | 274° |
| 2026-05-04 03:49 | 35.06097 | -91.85706 | 25041 ft | 313 kts | 274° |
| 2026-05-04 03:50 | 35.06141 | -91.88382 | 25034 ft | 313 kts | 274° |
| 2026-05-04 03:50 | 35.06185 | -91.91013 | 25037 ft | 313 kts | 274° |
| 2026-05-04 03:50 | 35.06228 | -91.93695 | 25033 ft | 313 kts | 274° |
| 2026-05-04 03:50 | 35.06384 | -91.96310 | 25006 ft | 311 kts | 283° |
| 2026-05-04 03:51 | 35.07044 | -91.98824 | 25017 ft | 310 kts | 290° |
| 2026-05-04 03:51 | 35.07830 | -92.01297 | 25022 ft | 310 kts | 292° |
| 2026-05-04 03:51 | 35.08640 | -92.03720 | 25025 ft | 310 kts | 292° |
| 2026-05-04 03:51 | 35.09375 | -92.06203 | 25024 ft | 310 kts | 287° |
| 2026-05-04 03:52 | 35.09948 | -92.08756 | 25024 ft | 310 kts | 287° |
| 2026-05-04 03:52 | 35.10590 | -92.11231 | 25021 ft | 310 kts | 289° |
| 2026-05-04 03:52 | 35.11273 | -92.13756 | 25023 ft | 310 kts | 288° |
| 2026-05-04 03:52 | 35.11883 | -92.16254 | 25024 ft | 310 kts | 287° |
| 2026-05-04 03:53 | 35.12529 | -92.18791 | 25024 ft | 310 kts | 288° |
| 2026-05-04 03:53 | 35.13179 | -92.21269 | 25025 ft | 310 kts | 288° |
| 2026-05-04 03:53 | 35.13818 | -92.23805 | 25020 ft | 310 kts | 288° |
| 2026-05-04 03:53 | 35.14457 | -92.26339 | 25017 ft | 310 kts | 288° |
| 2026-05-04 03:54 | 35.15105 | -92.28852 | 25017 ft | 310 kts | 288° |
| 2026-05-04 03:54 | 35.15734 | -92.31326 | 25018 ft | 309 kts | 288° |
| 2026-05-04 03:54 | 35.16372 | -92.33857 | 25015 ft | 309 kts | 288° |
| 2026-05-04 03:54 | 35.17012 | -92.36372 | 25018 ft | 309 kts | 288° |
| 2026-05-04 03:55 | 35.17647 | -92.38867 | 25018 ft | 309 kts | 288° |
| 2026-05-04 03:55 | 35.18280 | -92.41377 | 25019 ft | 309 kts | 288° |
| 2026-05-04 03:55 | 35.18918 | -92.43900 | 25020 ft | 309 kts | 288° |
| 2026-05-04 03:55 | 35.19546 | -92.46376 | 25018 ft | 309 kts | 288° |
| 2026-05-04 03:56 | 35.20184 | -92.48906 | 25021 ft | 309 kts | 288° |
| 2026-05-04 03:56 | 35.20812 | -92.51394 | 25021 ft | 308 kts | 288° |
| 2026-05-04 03:56 | 35.21447 | -92.53916 | 25018 ft | 308 kts | 288° |
| 2026-05-04 03:56 | 35.22081 | -92.56429 | 25018 ft | 308 kts | 288° |
| 2026-05-04 03:57 | 35.22708 | -92.58923 | 25016 ft | 308 kts | 288° |
| 2026-05-04 03:57 | 35.23341 | -92.61443 | 25015 ft | 308 kts | 288° |
| 2026-05-04 03:57 | 35.23964 | -92.63922 | 25015 ft | 308 kts | 288° |
| 2026-05-04 03:57 | 35.24595 | -92.66440 | 25016 ft | 308 kts | 288° |
| 2026-05-04 03:58 | 35.25863 | -92.71498 | 24724 ft | 316 kts | 288° |
| 2026-05-04 03:58 | 35.26514 | -92.74103 | 24293 ft | 319 kts | 288° |
| 2026-05-04 03:58 | 35.27155 | -92.76671 | 23895 ft | 320 kts | 288° |
| 2026-05-04 03:59 | 35.27807 | -92.79279 | 23468 ft | 317 kts | 288° |
| 2026-05-04 03:59 | 35.28451 | -92.81862 | 22971 ft | 312 kts | 287° |
| 2026-05-04 03:59 | 35.29082 | -92.84395 | 22488 ft | 308 kts | 287° |
| 2026-05-04 03:59 | 35.29698 | -92.86870 | 21998 ft | 304 kts | 287° |
| 2026-05-04 04:00 | 35.30303 | -92.89304 | 21548 ft | 300 kts | 287° |
| 2026-05-04 04:00 | 35.30910 | -92.91749 | 21085 ft | 297 kts | 287° |
| 2026-05-04 04:00 | 35.31503 | -92.94134 | 20637 ft | 294 kts | 287° |
| 2026-05-04 04:00 | 35.32095 | -92.96526 | 20190 ft | 292 kts | 287° |
| 2026-05-04 04:01 | 35.32681 | -92.98892 | 19754 ft | 290 kts | 287° |
| 2026-05-04 04:01 | 35.33269 | -93.01265 | 19326 ft | 289 kts | 287° |
| 2026-05-04 04:01 | 35.33848 | -93.03608 | 18892 ft | 288 kts | 287° |
| 2026-05-04 04:01 | 35.34428 | -93.05956 | 18477 ft | 287 kts | 287° |
| 2026-05-04 04:02 | 35.34894 | -93.08314 | 18016 ft | 287 kts | 277° |
| 2026-05-04 04:02 | 35.35013 | -93.10774 | 17547 ft | 287 kts | 272° |
| 2026-05-04 04:02 | 35.35041 | -93.13197 | 17086 ft | 288 kts | 271° |
| 2026-05-04 04:02 | 35.35037 | -93.15677 | 16626 ft | 289 kts | 270° |
| 2026-05-04 04:03 | 35.35021 | -93.18116 | 16173 ft | 290 kts | 270° |
| 2026-05-04 04:03 | 35.35006 | -93.19797 | 15869 ft | 291 kts | 270° |
| 2026-05-04 04:03 | 35.34983 | -93.22276 | 15428 ft | 293 kts | 270° |
| 2026-05-04 04:03 | 35.34963 | -93.24783 | 14989 ft | 295 kts | 270° |
| 2026-05-04 04:04 | 35.34943 | -93.27319 | 14557 ft | 299 kts | 270° |
| 2026-05-04 04:04 | 35.34925 | -93.29891 | 14129 ft | 302 kts | 270° |
| 2026-05-04 04:04 | 35.34908 | -93.32481 | 13692 ft | 305 kts | 270° |
| 2026-05-04 04:04 | 35.34899 | -93.35059 | 13225 ft | 307 kts | 270° |
| 2026-05-04 04:05 | 35.34894 | -93.37703 | 12763 ft | 310 kts | 270° |
| 2026-05-04 04:05 | 35.34894 | -93.40363 | 12304 ft | 312 kts | 270° |
| 2026-05-04 04:05 | 35.34898 | -93.43014 | 11858 ft | 315 kts | 270° |
| 2026-05-04 04:05 | 35.34905 | -93.45673 | 11418 ft | 310 kts | 270° |
| 2026-05-04 04:06 | 35.34917 | -93.48312 | 10968 ft | 306 kts | 270° |
| 2026-05-04 04:06 | 35.34933 | -93.50904 | 10530 ft | 302 kts | 270° |
| 2026-05-04 04:06 | 35.34951 | -93.53447 | 10106 ft | 300 kts | 270° |
| 2026-05-04 04:06 | 35.34971 | -93.56000 | 9654 ft | 298 kts | 270° |
| 2026-05-04 04:07 | 35.34996 | -93.58522 | 9193 ft | 297 kts | 270° |
| 2026-05-04 04:07 | 35.35023 | -93.61054 | 8728 ft | 295 kts | 270° |
| 2026-05-04 04:07 | 35.35055 | -93.63542 | 8282 ft | 289 kts | 270° |
| 2026-05-04 04:07 | 35.35091 | -93.65950 | 7828 ft | 276 kts | 270° |
| 2026-05-04 04:08 | 35.35132 | -93.68251 | 7376 ft | 265 kts | 270° |
| 2026-05-04 04:08 | 35.35179 | -93.70483 | 6933 ft | 256 kts | 270° |
| 2026-05-04 04:08 | 35.35230 | -93.72628 | 6500 ft | 248 kts | 270° |
| 2026-05-04 04:08 | 35.35283 | -93.74711 | 6046 ft | 242 kts | 270° |
| 2026-05-04 04:09 | 35.35340 | -93.76725 | 5596 ft | 236 kts | 270° |
| 2026-05-04 04:09 | 35.35400 | -93.78723 | 5144 ft | 231 kts | 271° |
| 2026-05-04 04:09 | 35.35458 | -93.80676 | 4699 ft | 227 kts | 271° |
| 2026-05-04 04:09 | 35.35522 | -93.82602 | 4247 ft | 223 kts | 270° |
| 2026-05-04 04:10 | 35.35596 | -93.84457 | 3803 ft | 220 kts | 270° |
| 2026-05-04 04:10 | 35.35694 | -93.86335 | 3389 ft | 216 kts | 270° |
| 2026-05-04 04:10 | 35.35803 | -93.88095 | 3169 ft | 205 kts | 270° |
| 2026-05-04 04:10 | 35.35920 | -93.89788 | 3081 ft | 190 kts | 271° |
| 2026-05-04 04:11 | 35.36040 | -93.91365 | 3020 ft | 184 kts | 271° |
| 2026-05-04 04:11 | 35.36160 | -93.92949 | 2923 ft | 187 kts | 271° |
| 2026-05-04 04:11 | 35.36278 | -93.94516 | 2912 ft | 185 kts | 271° |
| 2026-05-04 04:11 | 35.36396 | -93.96070 | 2917 ft | 182 kts | 270° |
| 2026-05-04 04:12 | 35.36523 | -93.97613 | 2918 ft | 180 kts | 270° |
| 2026-05-04 04:12 | 35.36651 | -93.99140 | 2926 ft | 180 kts | 271° |
| 2026-05-04 04:12 | 35.36770 | -94.00659 | 2943 ft | 180 kts | 271° |
| 2026-05-04 04:12 | 35.36890 | -94.02190 | 2976 ft | 178 kts | 271° |
| 2026-05-04 04:13 | 35.37010 | -94.03650 | 2995 ft | 163 kts | 271° |
| 2026-05-04 04:13 | 35.37126 | -94.04977 | 2974 ft | 151 kts | 271° |
| 2026-05-04 04:13 | 35.37240 | -94.06242 | 2858 ft | 150 kts | 271° |
| 2026-05-04 04:13 | 35.37354 | -94.07514 | 2688 ft | 152 kts | 271° |
| 2026-05-04 04:14 | 35.37469 | -94.08790 | 2590 ft | 149 kts | 271° |
| 2026-05-04 04:14 | 35.37545 | -94.10034 | 2536 ft | 143 kts | 265° |
| 2026-05-04 04:14 | 35.37423 | -94.11168 | 2481 ft | 127 kts | 255° |
| 2026-05-04 04:14 | 35.37219 | -94.12208 | 2282 ft | 126 kts | 252° |
| 2026-05-04 04:15 | 35.36990 | -94.13262 | 1983 ft | 130 kts | 252° |
| 2026-05-04 04:15 | 35.36749 | -94.14325 | 1760 ft | 129 kts | 251° |
| 2026-05-04 04:15 | 35.36508 | -94.15405 | 1552 ft | 132 kts | 251° |
| 2026-05-04 04:15 | 35.36268 | -94.16477 | 1441 ft | 131 kts | 252° |
| 2026-05-04 04:16 | 35.36031 | -94.17557 | 1354 ft | 131 kts | 252° |
| 2026-05-04 04:16 | 35.35816 | -94.18652 | 1260 ft | 133 kts | 255° |
| 2026-05-04 04:16 | 35.35635 | -94.19765 | 1161 ft | 140 kts | 258° |
| 2026-05-04 04:16 | 35.35479 | -94.21031 | 1233 ft | 152 kts | 260° |
| 2026-05-04 04:17 | 35.35378 | -94.22315 | 1411 ft | 152 kts | 262° |
| 2026-05-04 04:17 | 35.35328 | -94.23636 | 1443 ft | 159 kts | 264° |
| 2026-05-04 04:17 | 35.35236 | -94.24944 | 1662 ft | 149 kts | 257° |
| 2026-05-04 04:17 | 35.35017 | -94.26189 | 1752 ft | 150 kts | 253° |
| 2026-05-04 04:18 | 35.34786 | -94.27417 | 1712 ft | 142 kts | 255° |
| 2026-05-04 04:18 | 35.34658 | -94.28563 | 1540 ft | 128 kts | 263° |
| 2026-05-04 04:18 | 35.34593 | -94.29592 | 1310 ft | 119 kts | 259° |
| 2026-05-04 04:18 | 35.34423 | -94.30583 | 1080 ft | 113 kts | 253° |
| 2026-05-04 04:19 | 35.34245 | -94.31492 | 912 ft | 106 kts | 253° |
| 2026-05-04 04:19 | 35.34048 | -94.32327 | 721 ft | 100 kts | 256° |
| 2026-05-04 04:19 | 35.34011 | -94.33142 | 694 ft | 93 kts | 258° |
| 2026-05-04 04:19 | 35.33911 | -94.33918 | 693 ft | 89 kts | 257° |
| 2026-05-04 04:20 | 35.33822 | -94.34682 | 607 ft | 93 kts | 255° |
| 2026-05-04 04:20 | 35.33707 | -94.35453 | 511 ft | 92 kts | 257° |
| 2026-05-04 04:20 | 35.33625 | -94.36172 | 454 ft | 70 kts | 259° |
| 2026-05-04 04:20 | 35.33556 | -94.36531 | 454 ft | 28 kts | 261° |
| 2026-05-04 04:21 | 35.33539 | -94.36734 | 455 ft | 25 kts | 261° |
| 2026-05-04 04:21 | 35.33544 | -94.36917 | 457 ft | 18 kts | 339° |
| 2026-05-04 04:21 | 35.33637 | -94.36990 | 457 ft | 16 kts | 304° |
| 2026-05-04 04:21 | 35.33711 | -94.37035 | 457 ft | 4 kts | 165° |
| 2026-05-04 04:22 | 35.33709 | -94.37034 | 457 ft | 0 kts | 97° |